sensor_id;sensor_type;location;lat;lon;timestamp;P1;durP1;ratioP1;P2;durP2;ratioP2
68821;SDS011;55834;50.870;4.606;2022-10-17T00:00:40;3.38;;;2.97;;
68821;SDS011;55834;50.870;4.606;2022-10-17T00:03:05;6.10;;;4.60;;
68821;SDS011;55834;50.870;4.606;2022-10-17T00:05:31;4.50;;;3.80;;
68821;SDS011;55834;50.870;4.606;2022-10-17T00:07:56;4.38;;;3.67;;
68821;SDS011;55834;50.870;4.606;2022-10-17T00:10:22;6.35;;;3.80;;
68821;SDS011;55834;50.870;4.606;2022-10-17T00:12:47;3.85;;;3.42;;
68821;SDS011;55834;50.870;4.606;2022-10-17T00:15:15;6.70;;;4.20;;
68821;SDS011;55834;50.870;4.606;2022-10-17T00:17:42;6.25;;;3.67;;
68821;SDS011;55834;50.870;4.606;2022-10-17T00:20:08;3.93;;;3.37;;
68821;SDS011;55834;50.870;4.606;2022-10-17T00:22:33;4.68;;;3.63;;
68821;SDS011;55834;50.870;4.606;2022-10-17T00:24:59;4.50;;;3.80;;
68821;SDS011;55834;50.870;4.606;2022-10-17T00:27:24;11.73;;;3.90;;
68821;SDS011;55834;50.870;4.606;2022-10-17T00:29:50;5.57;;;3.97;;
68821;SDS011;55834;50.870;4.606;2022-10-17T00:32:17;6.50;;;3.60;;
68821;SDS011;55834;50.870;4.606;2022-10-17T00:34:43;4.72;;;3.53;;
68821;SDS011;55834;50.870;4.606;2022-10-17T00:37:09;4.18;;;3.50;;
68821;SDS011;55834;50.870;4.606;2022-10-17T00:39:34;4.65;;;3.45;;
68821;SDS011;55834;50.870;4.606;2022-10-17T00:42:00;4.03;;;3.30;;
68821;SDS011;55834;50.870;4.606;2022-10-17T00:46:54;5.68;;;3.70;;
68821;SDS011;55834;50.870;4.606;2022-10-17T00:49:20;4.10;;;3.70;;
68821;SDS011;55834;50.870;4.606;2022-10-17T00:51:50;3.25;;;2.70;;
68821;SDS011;55834;50.870;4.606;2022-10-17T00:54:18;5.07;;;3.92;;
68821;SDS011;55834;50.870;4.606;2022-10-17T00:56:47;3.75;;;3.38;;
68821;SDS011;55834;50.870;4.606;2022-10-17T00:59:13;4.00;;;3.58;;
68821;SDS011;55834;50.870;4.606;2022-10-17T01:01:42;5.18;;;3.60;;
68821;SDS011;55834;50.870;4.606;2022-10-17T01:04:12;2.85;;;2.65;;
68821;SDS011;55834;50.870;4.606;2022-10-17T01:06:38;4.35;;;3.60;;
68821;SDS011;55834;50.870;4.606;2022-10-17T01:09:03;6.05;;;3.08;;
68821;SDS011;55834;50.870;4.606;2022-10-17T01:12:03;3.83;;;3.13;;
68821;SDS011;55834;50.870;4.606;2022-10-17T01:14:34;3.63;;;2.80;;
68821;SDS011;55834;50.870;4.606;2022-10-17T01:19:49;3.92;;;2.97;;
68821;SDS011;55834;50.870;4.606;2022-10-17T01:22:30;2.85;;;2.47;;
68821;SDS011;55834;50.870;4.606;2022-10-17T01:33:10;3.50;;;3.20;;
68821;SDS011;55834;50.870;4.606;2022-10-17T01:35:43;6.28;;;3.70;;
68821;SDS011;55834;50.870;4.606;2022-10-17T01:38:19;4.75;;;2.42;;
68821;SDS011;55834;50.870;4.606;2022-10-17T01:40:52;3.20;;;2.90;;
68821;SDS011;55834;50.870;4.606;2022-10-17T01:43:46;3.10;;;2.80;;
68821;SDS011;55834;50.870;4.606;2022-10-17T01:46:23;4.97;;;2.97;;
68821;SDS011;55834;50.870;4.606;2022-10-17T01:48:58;4.25;;;2.55;;
68821;SDS011;55834;50.870;4.606;2022-10-17T01:51:27;3.63;;;2.47;;
68821;SDS011;55834;50.870;4.606;2022-10-17T01:54:02;4.65;;;3.60;;
68821;SDS011;55834;50.870;4.606;2022-10-17T01:56:34;3.40;;;3.08;;
68821;SDS011;55834;50.870;4.606;2022-10-17T01:59:06;5.32;;;4.03;;
68821;SDS011;55834;50.870;4.606;2022-10-17T02:01:37;5.50;;;3.50;;
68821;SDS011;55834;50.870;4.606;2022-10-17T02:04:06;9.07;;;3.67;;
68821;SDS011;55834;50.870;4.606;2022-10-17T02:06:34;3.22;;;2.67;;
68821;SDS011;55834;50.870;4.606;2022-10-17T02:09:00;3.78;;;3.13;;
68821;SDS011;55834;50.870;4.606;2022-10-17T02:11:26;5.10;;;3.30;;
68821;SDS011;55834;50.870;4.606;2022-10-17T02:16:54;5.18;;;3.63;;
68821;SDS011;55834;50.870;4.606;2022-10-17T02:22:29;4.22;;;3.83;;
68821;SDS011;55834;50.870;4.606;2022-10-17T02:25:11;5.55;;;3.30;;
68821;SDS011;55834;50.870;4.606;2022-10-17T02:27:51;6.68;;;3.35;;
68821;SDS011;55834;50.870;4.606;2022-10-17T02:30:36;7.78;;;3.80;;
68821;SDS011;55834;50.870;4.606;2022-10-17T02:33:11;5.95;;;4.68;;
68821;SDS011;55834;50.870;4.606;2022-10-17T02:35:42;5.53;;;3.67;;
68821;SDS011;55834;50.870;4.606;2022-10-17T02:38:11;4.65;;;3.85;;
68821;SDS011;55834;50.870;4.606;2022-10-17T02:43:04;7.18;;;3.50;;
68821;SDS011;55834;50.870;4.606;2022-10-17T02:45:30;8.70;;;4.53;;
68821;SDS011;55834;50.870;4.606;2022-10-17T02:48:07;4.22;;;3.72;;
68821;SDS011;55834;50.870;4.606;2022-10-17T02:50:46;3.83;;;3.47;;
68821;SDS011;55834;50.870;4.606;2022-10-17T02:56:25;5.93;;;3.40;;
68821;SDS011;55834;50.870;4.606;2022-10-17T02:58:55;3.75;;;3.35;;
68821;SDS011;55834;50.870;4.606;2022-10-17T03:01:23;3.92;;;3.13;;
68821;SDS011;55834;50.870;4.606;2022-10-17T03:03:50;5.43;;;3.70;;
68821;SDS011;55834;50.870;4.606;2022-10-17T03:06:15;7.10;;;3.95;;
68821;SDS011;55834;50.870;4.606;2022-10-17T03:08:41;3.60;;;3.30;;
68821;SDS011;55834;50.870;4.606;2022-10-17T03:11:06;4.45;;;3.67;;
68821;SDS011;55834;50.870;4.606;2022-10-17T03:13:32;5.20;;;3.87;;
68821;SDS011;55834;50.870;4.606;2022-10-17T03:15:57;6.87;;;3.57;;
68821;SDS011;55834;50.870;4.606;2022-10-17T03:18:22;4.43;;;3.58;;
68821;SDS011;55834;50.870;4.606;2022-10-17T03:20:48;4.88;;;3.50;;
68821;SDS011;55834;50.870;4.606;2022-10-17T03:23:13;5.18;;;3.67;;
68821;SDS011;55834;50.870;4.606;2022-10-17T03:25:39;4.17;;;3.33;;
68821;SDS011;55834;50.870;4.606;2022-10-17T03:28:04;4.47;;;3.22;;
68821;SDS011;55834;50.870;4.606;2022-10-17T03:30:30;6.20;;;3.47;;
68821;SDS011;55834;50.870;4.606;2022-10-17T03:32:56;4.80;;;4.07;;
68821;SDS011;55834;50.870;4.606;2022-10-17T03:35:22;4.70;;;3.45;;
68821;SDS011;55834;50.870;4.606;2022-10-17T03:37:48;3.78;;;3.20;;
68821;SDS011;55834;50.870;4.606;2022-10-17T03:40:13;3.92;;;3.53;;
68821;SDS011;55834;50.870;4.606;2022-10-17T03:42:39;5.53;;;3.30;;
68821;SDS011;55834;50.870;4.606;2022-10-17T03:45:04;7.13;;;3.57;;
68821;SDS011;55834;50.870;4.606;2022-10-17T03:47:30;6.25;;;3.30;;
68821;SDS011;55834;50.870;4.606;2022-10-17T03:49:55;3.72;;;3.42;;
68821;SDS011;55834;50.870;4.606;2022-10-17T03:52:20;4.00;;;3.67;;
68821;SDS011;55834;50.870;4.606;2022-10-17T03:54:46;4.70;;;2.73;;
68821;SDS011;55834;50.870;4.606;2022-10-17T03:57:11;4.07;;;3.53;;
68821;SDS011;55834;50.870;4.606;2022-10-17T03:59:37;4.70;;;3.37;;
68821;SDS011;55834;50.870;4.606;2022-10-17T04:02:02;4.87;;;3.63;;
68821;SDS011;55834;50.870;4.606;2022-10-17T04:04:27;3.93;;;3.63;;
68821;SDS011;55834;50.870;4.606;2022-10-17T04:06:53;5.50;;;3.57;;
68821;SDS011;55834;50.870;4.606;2022-10-17T04:09:18;4.75;;;3.30;;
68821;SDS011;55834;50.870;4.606;2022-10-17T04:11:44;4.28;;;3.47;;
68821;SDS011;55834;50.870;4.606;2022-10-17T04:14:09;5.05;;;3.33;;
68821;SDS011;55834;50.870;4.606;2022-10-17T04:16:35;5.35;;;3.80;;
68821;SDS011;55834;50.870;4.606;2022-10-17T04:19:00;4.53;;;3.75;;
68821;SDS011;55834;50.870;4.606;2022-10-17T04:21:27;4.97;;;3.55;;
68821;SDS011;55834;50.870;4.606;2022-10-17T04:23:53;8.60;;;3.25;;
68821;SDS011;55834;50.870;4.606;2022-10-17T04:26:19;3.97;;;3.38;;
68821;SDS011;55834;50.870;4.606;2022-10-17T04:28:44;4.17;;;3.77;;
68821;SDS011;55834;50.870;4.606;2022-10-17T04:31:11;6.45;;;4.28;;
68821;SDS011;55834;50.870;4.606;2022-10-17T04:33:38;4.82;;;2.97;;
68821;SDS011;55834;50.870;4.606;2022-10-17T04:36:05;5.47;;;3.88;;
68821;SDS011;55834;50.870;4.606;2022-10-17T04:38:34;5.50;;;3.13;;
68821;SDS011;55834;50.870;4.606;2022-10-17T04:41:00;5.57;;;3.63;;
68821;SDS011;55834;50.870;4.606;2022-10-17T04:43:28;5.88;;;3.42;;
68821;SDS011;55834;50.870;4.606;2022-10-17T04:45:58;3.30;;;2.90;;
68821;SDS011;55834;50.870;4.606;2022-10-17T04:48:25;4.68;;;3.10;;
68821;SDS011;55834;50.870;4.606;2022-10-17T04:51:01;4.75;;;3.70;;
68821;SDS011;55834;50.870;4.606;2022-10-17T04:53:35;6.22;;;3.22;;
68821;SDS011;55834;50.870;4.606;2022-10-17T04:56:06;4.10;;;3.10;;
68821;SDS011;55834;50.870;4.606;2022-10-17T04:58:35;3.75;;;3.13;;
68821;SDS011;55834;50.870;4.606;2022-10-17T05:01:05;4.45;;;2.88;;
68821;SDS011;55834;50.870;4.606;2022-10-17T05:03:35;3.88;;;3.08;;
68821;SDS011;55834;50.870;4.606;2022-10-17T05:06:06;4.60;;;3.20;;
68821;SDS011;55834;50.870;4.606;2022-10-17T05:08:34;6.00;;;3.15;;
68821;SDS011;55834;50.870;4.606;2022-10-17T05:10:59;4.00;;;3.05;;
68821;SDS011;55834;50.870;4.606;2022-10-17T05:13:25;4.22;;;3.03;;
68821;SDS011;55834;50.870;4.606;2022-10-17T05:15:50;5.50;;;3.10;;
68821;SDS011;55834;50.870;4.606;2022-10-17T05:18:16;3.20;;;2.83;;
68821;SDS011;55834;50.870;4.606;2022-10-17T05:20:41;5.13;;;3.03;;
68821;SDS011;55834;50.870;4.606;2022-10-17T05:23:06;4.63;;;2.87;;
68821;SDS011;55834;50.870;4.606;2022-10-17T05:25:32;6.10;;;3.30;;
68821;SDS011;55834;50.870;4.606;2022-10-17T05:27:57;4.60;;;3.00;;
68821;SDS011;55834;50.870;4.606;2022-10-17T05:30:22;3.70;;;3.30;;
68821;SDS011;55834;50.870;4.606;2022-10-17T05:32:50;3.93;;;3.43;;
68821;SDS011;55834;50.870;4.606;2022-10-17T05:35:17;7.35;;;3.50;;
68821;SDS011;55834;50.870;4.606;2022-10-17T05:37:42;4.63;;;2.87;;
68821;SDS011;55834;50.870;4.606;2022-10-17T05:40:08;5.90;;;2.90;;
68821;SDS011;55834;50.870;4.606;2022-10-17T05:42:33;4.88;;;3.25;;
68821;SDS011;55834;50.870;4.606;2022-10-17T05:44:59;4.77;;;3.23;;
68821;SDS011;55834;50.870;4.606;2022-10-17T05:47:24;6.13;;;2.97;;
68821;SDS011;55834;50.870;4.606;2022-10-17T05:49:49;5.87;;;3.43;;
68821;SDS011;55834;50.870;4.606;2022-10-17T05:52:15;7.57;;;4.57;;
68821;SDS011;55834;50.870;4.606;2022-10-17T05:54:40;4.27;;;2.77;;
68821;SDS011;55834;50.870;4.606;2022-10-17T05:57:06;3.97;;;3.05;;
68821;SDS011;55834;50.870;4.606;2022-10-17T05:59:31;3.70;;;3.33;;
68821;SDS011;55834;50.870;4.606;2022-10-17T06:01:56;5.07;;;3.78;;
68821;SDS011;55834;50.870;4.606;2022-10-17T06:04:22;5.17;;;3.00;;
68821;SDS011;55834;50.870;4.606;2022-10-17T06:06:47;4.67;;;2.90;;
68821;SDS011;55834;50.870;4.606;2022-10-17T06:09:12;6.50;;;3.15;;
68821;SDS011;55834;50.870;4.606;2022-10-17T06:11:38;7.67;;;4.77;;
68821;SDS011;55834;50.870;4.606;2022-10-17T06:14:03;4.68;;;3.25;;
68821;SDS011;55834;50.870;4.606;2022-10-17T06:16:29;4.05;;;3.10;;
68821;SDS011;55834;50.870;4.606;2022-10-17T06:18:54;3.83;;;2.85;;
68821;SDS011;55834;50.870;4.606;2022-10-17T06:21:20;6.93;;;3.37;;
68821;SDS011;55834;50.870;4.606;2022-10-17T06:23:51;4.50;;;3.28;;
68821;SDS011;55834;50.870;4.606;2022-10-17T06:26:17;4.90;;;3.53;;
68821;SDS011;55834;50.870;4.606;2022-10-17T06:28:43;4.20;;;3.60;;
68821;SDS011;55834;50.870;4.606;2022-10-17T06:31:12;3.25;;;2.95;;
68821;SDS011;55834;50.870;4.606;2022-10-17T06:33:39;5.45;;;3.50;;
68821;SDS011;55834;50.870;4.606;2022-10-17T06:36:05;3.05;;;2.65;;
68821;SDS011;55834;50.870;4.606;2022-10-17T06:38:32;5.20;;;3.45;;
68821;SDS011;55834;50.870;4.606;2022-10-17T06:41:05;5.15;;;2.75;;
68821;SDS011;55834;50.870;4.606;2022-10-17T06:43:33;6.82;;;2.80;;
68821;SDS011;55834;50.870;4.606;2022-10-17T06:50:49;5.23;;;3.53;;
68821;SDS011;55834;50.870;4.606;2022-10-17T06:53:15;6.43;;;3.70;;
68821;SDS011;55834;50.870;4.606;2022-10-17T06:55:40;3.10;;;2.63;;
68821;SDS011;55834;50.870;4.606;2022-10-17T06:58:06;4.05;;;3.58;;
68821;SDS011;55834;50.870;4.606;2022-10-17T07:00:32;4.68;;;2.90;;
68821;SDS011;55834;50.870;4.606;2022-10-17T07:02:57;3.10;;;2.77;;
68821;SDS011;55834;50.870;4.606;2022-10-17T07:05:22;6.00;;;3.00;;
68821;SDS011;55834;50.870;4.606;2022-10-17T07:07:48;6.80;;;3.20;;
68821;SDS011;55834;50.870;4.606;2022-10-17T07:10:13;5.13;;;2.80;;
68821;SDS011;55834;50.870;4.606;2022-10-17T07:12:39;5.22;;;3.20;;
68821;SDS011;55834;50.870;4.606;2022-10-17T07:15:04;5.33;;;3.17;;
68821;SDS011;55834;50.870;4.606;2022-10-17T07:17:30;4.75;;;3.92;;
68821;SDS011;55834;50.870;4.606;2022-10-17T07:19:55;4.13;;;2.20;;
68821;SDS011;55834;50.870;4.606;2022-10-17T07:22:20;4.78;;;3.38;;
68821;SDS011;55834;50.870;4.606;2022-10-17T07:24:46;5.47;;;2.87;;
68821;SDS011;55834;50.870;4.606;2022-10-17T07:27:11;8.15;;;3.08;;
68821;SDS011;55834;50.870;4.606;2022-10-17T07:29:38;4.10;;;3.13;;
68821;SDS011;55834;50.870;4.606;2022-10-17T07:32:03;5.10;;;2.97;;
68821;SDS011;55834;50.870;4.606;2022-10-17T07:34:32;4.95;;;3.33;;
68821;SDS011;55834;50.870;4.606;2022-10-17T07:36:58;4.45;;;2.85;;
68821;SDS011;55834;50.870;4.606;2022-10-17T07:39:23;4.73;;;3.33;;
68821;SDS011;55834;50.870;4.606;2022-10-17T07:41:49;3.63;;;2.50;;
68821;SDS011;55834;50.870;4.606;2022-10-17T07:44:14;5.67;;;3.33;;
68821;SDS011;55834;50.870;4.606;2022-10-17T07:46:40;5.25;;;2.90;;
68821;SDS011;55834;50.870;4.606;2022-10-17T07:49:05;5.00;;;2.97;;
68821;SDS011;55834;50.870;4.606;2022-10-17T07:51:31;4.23;;;2.90;;
68821;SDS011;55834;50.870;4.606;2022-10-17T07:53:56;3.17;;;2.88;;
68821;SDS011;55834;50.870;4.606;2022-10-17T07:56:22;3.23;;;2.40;;
68821;SDS011;55834;50.870;4.606;2022-10-17T07:58:48;3.92;;;2.95;;
68821;SDS011;55834;50.870;4.606;2022-10-17T08:01:15;2.90;;;2.70;;
68821;SDS011;55834;50.870;4.606;2022-10-17T08:03:45;3.17;;;2.97;;
68821;SDS011;55834;50.870;4.606;2022-10-17T08:06:12;5.93;;;3.05;;
68821;SDS011;55834;50.870;4.606;2022-10-17T08:08:38;3.47;;;2.40;;
68821;SDS011;55834;50.870;4.606;2022-10-17T08:11:05;5.80;;;3.63;;
68821;SDS011;55834;50.870;4.606;2022-10-17T08:13:32;3.17;;;2.88;;
68821;SDS011;55834;50.870;4.606;2022-10-17T08:15:58;4.22;;;2.95;;
68821;SDS011;55834;50.870;4.606;2022-10-17T08:18:25;7.05;;;4.53;;
68821;SDS011;55834;50.870;4.606;2022-10-17T08:20:50;8.90;;;5.63;;
68821;SDS011;55834;50.870;4.606;2022-10-17T08:23:16;3.40;;;3.10;;
68821;SDS011;55834;50.870;4.606;2022-10-17T08:25:41;3.20;;;2.60;;
68821;SDS011;55834;50.870;4.606;2022-10-17T08:28:06;5.57;;;4.37;;
68821;SDS011;55834;50.870;4.606;2022-10-17T08:30:32;4.87;;;4.10;;
68821;SDS011;55834;50.870;4.606;2022-10-17T08:32:57;8.60;;;3.47;;
68821;SDS011;55834;50.870;4.606;2022-10-17T08:35:22;7.00;;;3.88;;
68821;SDS011;55834;50.870;4.606;2022-10-17T08:37:48;4.27;;;3.67;;
68821;SDS011;55834;50.870;4.606;2022-10-17T08:40:18;5.63;;;3.92;;
68821;SDS011;55834;50.870;4.606;2022-10-17T08:45:32;5.57;;;3.60;;
68821;SDS011;55834;50.870;4.606;2022-10-17T08:48:05;5.13;;;4.20;;
68821;SDS011;55834;50.870;4.606;2022-10-17T08:50:50;6.70;;;3.70;;
68821;SDS011;55834;50.870;4.606;2022-10-17T08:56:12;5.18;;;3.42;;
68821;SDS011;55834;50.870;4.606;2022-10-17T08:58:50;5.07;;;3.95;;
68821;SDS011;55834;50.870;4.606;2022-10-17T09:06:28;3.40;;;3.10;;
68821;SDS011;55834;50.870;4.606;2022-10-17T09:09:02;3.33;;;2.22;;
68821;SDS011;55834;50.870;4.606;2022-10-17T09:19:29;5.10;;;2.85;;
68821;SDS011;55834;50.870;4.606;2022-10-17T09:22:18;2.72;;;2.50;;
68821;SDS011;55834;50.870;4.606;2022-10-17T09:24:50;4.40;;;2.75;;
68821;SDS011;55834;50.870;4.606;2022-10-17T09:27:24;5.47;;;2.92;;
68821;SDS011;55834;50.870;4.606;2022-10-17T09:29:53;6.10;;;2.70;;
68821;SDS011;55834;50.870;4.606;2022-10-17T09:32:30;5.07;;;2.75;;
68821;SDS011;55834;50.870;4.606;2022-10-17T09:34:56;4.55;;;2.70;;
68821;SDS011;55834;50.870;4.606;2022-10-17T09:37:23;3.60;;;3.08;;
68821;SDS011;55834;50.870;4.606;2022-10-17T09:39:56;5.50;;;2.83;;
68821;SDS011;55834;50.870;4.606;2022-10-17T09:42:22;5.70;;;3.20;;
68821;SDS011;55834;50.870;4.606;2022-10-17T09:47:37;3.97;;;3.35;;
68821;SDS011;55834;50.870;4.606;2022-10-17T09:50:23;4.75;;;3.30;;
68821;SDS011;55834;50.870;4.606;2022-10-17T09:52:54;4.78;;;2.72;;
68821;SDS011;55834;50.870;4.606;2022-10-17T10:00:27;6.43;;;3.40;;
68821;SDS011;55834;50.870;4.606;2022-10-17T10:03:07;5.32;;;3.63;;
68821;SDS011;55834;50.870;4.606;2022-10-17T10:05:33;5.30;;;3.53;;
68821;SDS011;55834;50.870;4.606;2022-10-17T10:08:00;5.63;;;3.60;;
68821;SDS011;55834;50.870;4.606;2022-10-17T10:10:46;7.07;;;4.00;;
68821;SDS011;55834;50.870;4.606;2022-10-17T10:13:23;6.43;;;3.78;;
68821;SDS011;55834;50.870;4.606;2022-10-17T10:15:50;4.00;;;3.60;;
68821;SDS011;55834;50.870;4.606;2022-10-17T10:23:40;3.97;;;3.42;;
68821;SDS011;55834;50.870;4.606;2022-10-17T10:26:17;6.50;;;4.10;;
68821;SDS011;55834;50.870;4.606;2022-10-17T10:28:56;5.05;;;4.13;;
68821;SDS011;55834;50.870;4.606;2022-10-17T10:31:26;6.80;;;3.92;;
68821;SDS011;55834;50.870;4.606;2022-10-17T10:33:55;6.90;;;4.30;;
68821;SDS011;55834;50.870;4.606;2022-10-17T10:36:21;7.38;;;3.85;;
68821;SDS011;55834;50.870;4.606;2022-10-17T10:38:51;4.38;;;3.90;;
68821;SDS011;55834;50.870;4.606;2022-10-17T10:41:19;4.47;;;2.95;;
68821;SDS011;55834;50.870;4.606;2022-10-17T10:43:46;7.00;;;3.47;;
68821;SDS011;55834;50.870;4.606;2022-10-17T10:46:23;4.53;;;3.03;;
68821;SDS011;55834;50.870;4.606;2022-10-17T10:48:55;7.25;;;3.45;;
68821;SDS011;55834;50.870;4.606;2022-10-17T10:51:26;5.63;;;3.47;;
68821;SDS011;55834;50.870;4.606;2022-10-17T10:56:35;4.35;;;3.90;;
68821;SDS011;55834;50.870;4.606;2022-10-17T10:59:07;5.35;;;3.63;;
68821;SDS011;55834;50.870;4.606;2022-10-17T11:07:41;4.40;;;3.05;;
68821;SDS011;55834;50.870;4.606;2022-10-17T11:10:20;3.97;;;3.42;;
68821;SDS011;55834;50.870;4.606;2022-10-17T11:13:12;5.03;;;4.40;;
68821;SDS011;55834;50.870;4.606;2022-10-17T11:15:46;7.25;;;4.30;;
68821;SDS011;55834;50.870;4.606;2022-10-17T11:18:25;4.57;;;3.67;;
68821;SDS011;55834;50.870;4.606;2022-10-17T11:21:12;7.78;;;3.30;;
68821;SDS011;55834;50.870;4.606;2022-10-17T11:23:45;5.80;;;3.83;;
68821;SDS011;55834;50.870;4.606;2022-10-17T11:26:34;5.97;;;3.25;;
68821;SDS011;55834;50.870;4.606;2022-10-17T11:29:04;4.28;;;3.22;;
68821;SDS011;55834;50.870;4.606;2022-10-17T11:31:34;6.90;;;4.45;;
68821;SDS011;55834;50.870;4.606;2022-10-17T11:36:37;9.82;;;3.67;;
68821;SDS011;55834;50.870;4.606;2022-10-17T11:39:09;7.45;;;3.92;;
68821;SDS011;55834;50.870;4.606;2022-10-17T11:41:47;3.85;;;3.03;;
68821;SDS011;55834;50.870;4.606;2022-10-17T11:47:03;5.00;;;3.25;;
68821;SDS011;55834;50.870;4.606;2022-10-17T11:49:37;6.43;;;3.53;;
68821;SDS011;55834;50.870;4.606;2022-10-17T11:54:56;9.48;;;3.20;;
68821;SDS011;55834;50.870;4.606;2022-10-17T11:57:33;3.45;;;3.00;;
68821;SDS011;55834;50.870;4.606;2022-10-17T12:00:20;6.90;;;3.28;;
68821;SDS011;55834;50.870;4.606;2022-10-17T12:03:31;5.10;;;3.25;;
68821;SDS011;55834;50.870;4.606;2022-10-17T12:11:32;4.05;;;2.90;;
68821;SDS011;55834;50.870;4.606;2022-10-17T12:17:03;4.13;;;2.72;;
68821;SDS011;55834;50.870;4.606;2022-10-17T12:19:31;4.45;;;3.15;;
68821;SDS011;55834;50.870;4.606;2022-10-17T12:22:02;4.60;;;3.05;;
68821;SDS011;55834;50.870;4.606;2022-10-17T12:24:39;2.83;;;2.50;;
68821;SDS011;55834;50.870;4.606;2022-10-17T12:30:03;4.80;;;2.40;;
68821;SDS011;55834;50.870;4.606;2022-10-17T12:35:19;4.18;;;3.17;;
68821;SDS011;55834;50.870;4.606;2022-10-17T12:42:59;5.72;;;2.50;;
68821;SDS011;55834;50.870;4.606;2022-10-17T12:48:10;5.68;;;3.80;;
68821;SDS011;55834;50.870;4.606;2022-10-17T12:56:47;4.47;;;3.30;;
68821;SDS011;55834;50.870;4.606;2022-10-17T12:59:20;4.30;;;3.22;;
68821;SDS011;55834;50.870;4.606;2022-10-17T13:01:51;6.47;;;3.10;;
68821;SDS011;55834;50.870;4.606;2022-10-17T13:04:20;5.75;;;4.15;;
68821;SDS011;55834;50.870;4.606;2022-10-17T13:06:47;5.57;;;3.17;;
68821;SDS011;55834;50.870;4.606;2022-10-17T13:09:23;3.60;;;3.10;;
68821;SDS011;55834;50.870;4.606;2022-10-17T13:11:52;5.75;;;4.03;;
68821;SDS011;55834;50.870;4.606;2022-10-17T13:19:23;8.18;;;3.72;;
68821;SDS011;55834;50.870;4.606;2022-10-17T13:24:28;5.72;;;4.20;;
68821;SDS011;55834;50.870;4.606;2022-10-17T13:26:54;5.22;;;3.72;;
68821;SDS011;55834;50.870;4.606;2022-10-17T13:29:20;7.15;;;4.85;;
68821;SDS011;55834;50.870;4.606;2022-10-17T13:31:54;6.35;;;4.05;;
68821;SDS011;55834;50.870;4.606;2022-10-17T13:34:24;4.10;;;3.70;;
68821;SDS011;55834;50.870;4.606;2022-10-17T13:36:57;7.57;;;4.85;;
68821;SDS011;55834;50.870;4.606;2022-10-17T13:39:26;4.95;;;3.80;;
68821;SDS011;55834;50.870;4.606;2022-10-17T13:41:55;11.88;;;4.20;;
68821;SDS011;55834;50.870;4.606;2022-10-17T13:44:22;5.97;;;4.45;;
68821;SDS011;55834;50.870;4.606;2022-10-17T13:46:50;5.82;;;4.10;;
68821;SDS011;55834;50.870;4.606;2022-10-17T13:52:13;3.97;;;3.53;;
68821;SDS011;55834;50.870;4.606;2022-10-17T13:54:43;5.60;;;3.90;;
68821;SDS011;55834;50.870;4.606;2022-10-17T13:57:30;4.22;;;3.40;;
68821;SDS011;55834;50.870;4.606;2022-10-17T13:59:56;4.40;;;3.13;;
68821;SDS011;55834;50.870;4.606;2022-10-17T14:02:28;4.60;;;2.80;;
68821;SDS011;55834;50.870;4.606;2022-10-17T14:05:02;6.32;;;3.10;;
68821;SDS011;55834;50.870;4.606;2022-10-17T14:07:40;3.53;;;3.22;;
68821;SDS011;55834;50.870;4.606;2022-10-17T14:10:34;2.97;;;2.78;;
68821;SDS011;55834;50.870;4.606;2022-10-17T14:13:02;7.00;;;2.92;;
68821;SDS011;55834;50.870;4.606;2022-10-17T14:15:30;3.35;;;2.45;;
68821;SDS011;55834;50.870;4.606;2022-10-17T14:18:00;6.90;;;2.72;;
68821;SDS011;55834;50.870;4.606;2022-10-17T14:20:28;2.83;;;2.50;;
68821;SDS011;55834;50.870;4.606;2022-10-17T14:22:55;3.78;;;2.97;;
68821;SDS011;55834;50.870;4.606;2022-10-17T14:25:28;3.25;;;2.88;;
68821;SDS011;55834;50.870;4.606;2022-10-17T14:30:38;4.32;;;2.60;;
68821;SDS011;55834;50.870;4.606;2022-10-17T14:33:17;4.22;;;2.63;;
68821;SDS011;55834;50.870;4.606;2022-10-17T14:35:53;5.50;;;3.35;;
68821;SDS011;55834;50.870;4.606;2022-10-17T14:38:20;4.45;;;2.55;;
68821;SDS011;55834;50.870;4.606;2022-10-17T14:41:20;3.42;;;2.60;;
68821;SDS011;55834;50.870;4.606;2022-10-17T14:44:00;5.70;;;2.78;;
68821;SDS011;55834;50.870;4.606;2022-10-17T14:46:27;4.45;;;2.40;;
68821;SDS011;55834;50.870;4.606;2022-10-17T14:49:06;4.88;;;3.28;;
68821;SDS011;55834;50.870;4.606;2022-10-17T14:51:40;2.47;;;2.10;;
68821;SDS011;55834;50.870;4.606;2022-10-17T14:54:41;3.05;;;2.78;;
68821;SDS011;55834;50.870;4.606;2022-10-17T14:59:52;3.65;;;2.00;;
68821;SDS011;55834;50.870;4.606;2022-10-17T15:02:19;6.07;;;2.58;;
68821;SDS011;55834;50.870;4.606;2022-10-17T15:04:45;3.78;;;2.60;;
68821;SDS011;55834;50.870;4.606;2022-10-17T15:07:14;4.10;;;2.45;;
68821;SDS011;55834;50.870;4.606;2022-10-17T15:09:41;3.85;;;2.55;;
68821;SDS011;55834;50.870;4.606;2022-10-17T15:12:12;3.45;;;2.50;;
68821;SDS011;55834;50.870;4.606;2022-10-17T15:14:40;2.70;;;2.50;;
68821;SDS011;55834;50.870;4.606;2022-10-17T15:17:12;4.20;;;2.45;;
68821;SDS011;55834;50.870;4.606;2022-10-17T15:19:40;4.75;;;2.63;;
68821;SDS011;55834;50.870;4.606;2022-10-17T15:22:05;2.15;;;1.80;;
68821;SDS011;55834;50.870;4.606;2022-10-17T15:24:31;3.13;;;2.78;;
68821;SDS011;55834;50.870;4.606;2022-10-17T15:26:56;3.47;;;2.20;;
68821;SDS011;55834;50.870;4.606;2022-10-17T15:29:22;5.90;;;2.37;;
68821;SDS011;55834;50.870;4.606;2022-10-17T15:31:47;2.60;;;2.37;;
68821;SDS011;55834;50.870;4.606;2022-10-17T15:34:12;3.80;;;1.87;;
68821;SDS011;55834;50.870;4.606;2022-10-17T15:36:39;5.40;;;2.60;;
68821;SDS011;55834;50.870;4.606;2022-10-17T15:39:05;6.55;;;2.92;;
68821;SDS011;55834;50.870;4.606;2022-10-17T15:41:32;3.30;;;2.38;;
68821;SDS011;55834;50.870;4.606;2022-10-17T15:43:57;2.70;;;1.52;;
68821;SDS011;55834;50.870;4.606;2022-10-17T15:46:24;2.15;;;1.90;;
68821;SDS011;55834;50.870;4.606;2022-10-17T15:48:52;2.38;;;1.80;;
68821;SDS011;55834;50.870;4.606;2022-10-17T15:51:18;2.47;;;2.25;;
68821;SDS011;55834;50.870;4.606;2022-10-17T15:53:44;4.38;;;2.95;;
68821;SDS011;55834;50.870;4.606;2022-10-17T15:56:14;14.45;;;6.35;;
68821;SDS011;55834;50.870;4.606;2022-10-17T15:58:45;13.15;;;5.93;;
68821;SDS011;55834;50.870;4.606;2022-10-17T16:01:15;8.40;;;4.55;;
68821;SDS011;55834;50.870;4.606;2022-10-17T16:03:52;7.35;;;4.93;;
68821;SDS011;55834;50.870;4.606;2022-10-17T16:06:18;8.80;;;4.60;;
68821;SDS011;55834;50.870;4.606;2022-10-17T16:08:48;5.93;;;3.83;;
68821;SDS011;55834;50.870;4.606;2022-10-17T16:13:58;6.38;;;4.15;;
68821;SDS011;55834;50.870;4.606;2022-10-17T16:16:26;4.85;;;3.65;;
68821;SDS011;55834;50.870;4.606;2022-10-17T16:18:52;7.25;;;4.70;;
68821;SDS011;55834;50.870;4.606;2022-10-17T16:21:18;6.60;;;5.53;;
68821;SDS011;55834;50.870;4.606;2022-10-17T16:23:44;4.93;;;4.25;;
68821;SDS011;55834;50.870;4.606;2022-10-17T16:26:10;5.70;;;4.90;;
68821;SDS011;55834;50.870;4.606;2022-10-17T16:28:38;7.82;;;4.95;;
68821;SDS011;55834;50.870;4.606;2022-10-17T16:31:04;21.48;;;11.48;;
68821;SDS011;55834;50.870;4.606;2022-10-17T16:33:43;12.15;;;7.28;;
68821;SDS011;55834;50.870;4.606;2022-10-17T16:36:08;13.90;;;5.80;;
68821;SDS011;55834;50.870;4.606;2022-10-17T16:38:34;7.95;;;5.18;;
68821;SDS011;55834;50.870;4.606;2022-10-17T16:40:59;13.13;;;6.83;;
68821;SDS011;55834;50.870;4.606;2022-10-17T16:43:25;10.60;;;7.97;;
68821;SDS011;55834;50.870;4.606;2022-10-17T16:45:50;11.88;;;10.57;;
68821;SDS011;55834;50.870;4.606;2022-10-17T16:48:16;5.90;;;5.30;;
68821;SDS011;55834;50.870;4.606;2022-10-17T16:50:41;7.18;;;3.95;;
68821;SDS011;55834;50.870;4.606;2022-10-17T16:53:07;5.63;;;4.97;;
68821;SDS011;55834;50.870;4.606;2022-10-17T16:55:32;6.68;;;6.03;;
68821;SDS011;55834;50.870;4.606;2022-10-17T16:57:57;7.70;;;6.37;;
68821;SDS011;55834;50.870;4.606;2022-10-17T17:00:23;5.45;;;4.95;;
68821;SDS011;55834;50.870;4.606;2022-10-17T17:02:50;5.88;;;3.42;;
68821;SDS011;55834;50.870;4.606;2022-10-17T17:05:15;4.63;;;3.50;;